sensor_id;sensor_type;location;lat;lon;timestamp;pressure;altitude;pressure_sealevel;temperature;humidity
16120;BME280;12670;53.502;10.252;2023-03-21T00:02:21;101231.75;;;8.78;100.00
16120;BME280;12670;53.502;10.252;2023-03-21T00:05:25;101226.88;;;8.96;100.00
16120;BME280;12670;53.502;10.252;2023-03-21T00:08:28;101223.47;;;8.92;100.00
16120;BME280;12670;53.502;10.252;2023-03-21T00:11:31;101228.50;;;8.69;100.00
16120;BME280;12670;53.502;10.252;2023-03-21T00:14:34;101223.53;;;8.57;100.00
16120;BME280;12670;53.502;10.252;2023-03-21T00:17:38;101230.00;;;8.77;100.00
16120;BME280;12670;53.502;10.252;2023-03-21T00:20:41;101223.00;;;8.76;100.00
16120;BME280;12670;53.502;10.252;2023-03-21T00:23:47;101223.91;;;8.75;100.00
16120;BME280;12670;53.502;10.252;2023-03-21T00:26:50;101212.63;;;8.33;100.00
16120;BME280;12670;53.502;10.252;2023-03-21T00:29:54;101220.47;;;8.72;100.00
16120;BME280;12670;53.502;10.252;2023-03-21T00:32:56;101207.81;;;8.83;100.00
16120;BME280;12670;53.502;10.252;2023-03-21T00:36:07;101213.38;;;8.74;100.00
16120;BME280;12670;53.502;10.252;2023-03-21T00:39:11;101214.31;;;8.71;100.00
16120;BME280;12670;53.502;10.252;2023-03-21T00:42:14;101204.06;;;8.92;100.00
16120;BME280;12670;53.502;10.252;2023-03-21T00:45:18;101203.97;;;8.95;100.00
16120;BME280;12670;53.502;10.252;2023-03-21T00:48:23;101203.31;;;8.87;100.00
16120;BME280;12670;53.502;10.252;2023-03-21T00:51:25;101210.81;;;9.02;100.00
16120;BME280;12670;53.502;10.252;2023-03-21T00:54:28;101199.47;;;8.97;100.00
16120;BME280;12670;53.502;10.252;2023-03-21T00:57:31;101191.88;;;8.86;100.00
16120;BME280;12670;53.502;10.252;2023-03-21T01:00:41;101189.00;;;8.94;100.00
16120;BME280;12670;53.502;10.252;2023-03-21T01:03:44;101197.94;;;8.90;100.00
16120;BME280;12670;53.502;10.252;2023-03-21T01:06:48;101192.50;;;8.63;100.00
16120;BME280;12670;53.502;10.252;2023-03-21T01:09:50;101198.19;;;8.80;100.00
16120;BME280;12670;53.502;10.252;2023-03-21T01:12:53;101188.13;;;8.93;100.00
16120;BME280;12670;53.502;10.252;2023-03-21T01:15:58;101182.91;;;8.92;100.00
16120;BME280;12670;53.502;10.252;2023-03-21T01:19:03;101188.41;;;8.50;100.00
16120;BME280;12670;53.502;10.252;2023-03-21T01:22:12;101187.84;;;8.71;100.00
16120;BME280;12670;53.502;10.252;2023-03-21T01:25:15;101190.09;;;8.85;100.00
16120;BME280;12670;53.502;10.252;2023-03-21T01:28:25;101178.47;;;8.91;100.00
16120;BME280;12670;53.502;10.252;2023-03-21T01:31:29;101182.38;;;8.77;100.00
16120;BME280;12670;53.502;10.252;2023-03-21T01:34:32;101184.63;;;8.60;100.00
16120;BME280;12670;53.502;10.252;2023-03-21T01:37:34;101178.75;;;8.81;100.00
16120;BME280;12670;53.502;10.252;2023-03-21T01:40:37;101169.50;;;8.96;100.00
16120;BME280;12670;53.502;10.252;2023-03-21T01:43:40;101176.50;;;8.99;100.00
16120;BME280;12670;53.502;10.252;2023-03-21T01:46:45;101182.38;;;8.77;100.00
16120;BME280;12670;53.502;10.252;2023-03-21T01:50:09;101172.31;;;8.92;100.00
16120;BME280;12670;53.502;10.252;2023-03-21T01:53:13;101181.78;;;8.68;100.00
16120;BME280;12670;53.502;10.252;2023-03-21T01:56:22;101173.41;;;8.83;100.00
16120;BME280;12670;53.502;10.252;2023-03-21T01:59:28;101178.22;;;8.69;100.00
16120;BME280;12670;53.502;10.252;2023-03-21T02:02:33;101180.63;;;8.45;100.00
16120;BME280;12670;53.502;10.252;2023-03-21T02:05:50;101172.16;;;8.65;100.00
16120;BME280;12670;53.502;10.252;2023-03-21T02:08:53;101166.09;;;8.93;100.00
16120;BME280;12670;53.502;10.252;2023-03-21T02:11:56;101166.50;;;8.77;100.00
16120;BME280;12670;53.502;10.252;2023-03-21T02:14:59;101157.66;;;8.78;100.00
16120;BME280;12670;53.502;10.252;2023-03-21T02:18:08;101161.34;;;8.73;100.00
16120;BME280;12670;53.502;10.252;2023-03-21T02:21:39;101161.31;;;8.74;100.00
16120;BME280;12670;53.502;10.252;2023-03-21T02:25:01;101149.53;;;8.86;100.00
16120;BME280;12670;53.502;10.252;2023-03-21T02:28:23;101138.72;;;8.94;100.00
16120;BME280;12670;53.502;10.252;2023-03-21T02:31:35;101138.41;;;9.04;100.00
16120;BME280;12670;53.502;10.252;2023-03-21T02:34:54;101133.38;;;8.95;100.00
16120;BME280;12670;53.502;10.252;2023-03-21T02:38:06;101138.56;;;8.69;100.00
16120;BME280;12670;53.502;10.252;2023-03-21T02:41:15;101146.84;;;8.55;100.00
16120;BME280;12670;53.502;10.252;2023-03-21T02:44:24;101138.25;;;8.79;100.00
16120;BME280;12670;53.502;10.252;2023-03-21T02:47:33;101140.19;;;9.04;100.00
16120;BME280;12670;53.502;10.252;2023-03-21T02:50:41;101137.19;;;8.85;100.00
16120;BME280;12670;53.502;10.252;2023-03-21T02:53:48;101126.78;;;9.10;100.00
16120;BME280;12670;53.502;10.252;2023-03-21T02:57:12;101130.25;;;9.12;100.00
16120;BME280;12670;53.502;10.252;2023-03-21T03:00:19;101131.56;;;8.97;100.00
16120;BME280;12670;53.502;10.252;2023-03-21T03:03:23;101130.66;;;8.98;100.00
16120;BME280;12670;53.502;10.252;2023-03-21T03:06:39;101122.94;;;9.20;100.00
16120;BME280;12670;53.502;10.252;2023-03-21T03:09:59;101123.59;;;9.28;100.00
16120;BME280;12670;53.502;10.252;2023-03-21T03:13:13;101124.75;;;9.18;100.00
16120;BME280;12670;53.502;10.252;2023-03-21T03:16:24;101124.81;;;9.17;100.00
16120;BME280;12670;53.502;10.252;2023-03-21T03:19:32;101124.13;;;8.79;100.00
16120;BME280;12670;53.502;10.252;2023-03-21T03:22:55;101120.25;;;8.92;100.00
16120;BME280;12670;53.502;10.252;2023-03-21T03:26:03;101119.84;;;9.06;100.00
16120;BME280;12670;53.502;10.252;2023-03-21T03:29:12;101115.09;;;9.17;100.00
16120;BME280;12670;53.502;10.252;2023-03-21T03:32:19;101111.28;;;8.98;100.00
16120;BME280;12670;53.502;10.252;2023-03-21T03:35:24;101116.31;;;8.76;100.00
16120;BME280;12670;53.502;10.252;2023-03-21T03:38:28;101122.38;;;8.79;100.00
16120;BME280;12670;53.502;10.252;2023-03-21T03:41:34;101111.81;;;8.79;100.00
16120;BME280;12670;53.502;10.252;2023-03-21T03:45:00;101110.38;;;8.66;100.00
16120;BME280;12670;53.502;10.252;2023-03-21T03:48:05;101110.31;;;8.69;100.00
16120;BME280;12670;53.502;10.252;2023-03-21T03:51:14;101102.47;;;8.96;100.00
16120;BME280;12670;53.502;10.252;2023-03-21T03:54:21;101102.03;;;9.11;100.00
16120;BME280;12670;53.502;10.252;2023-03-21T03:57:28;101100.06;;;9.18;100.00
16120;BME280;12670;53.502;10.252;2023-03-21T04:00:32;101105.78;;;9.04;100.00
16120;BME280;12670;53.502;10.252;2023-03-21T04:03:38;101113.63;;;9.07;100.00
16120;BME280;12670;53.502;10.252;2023-03-21T04:06:50;101101.94;;;9.14;100.00
16120;BME280;12670;53.502;10.252;2023-03-21T04:09:53;101102.03;;;9.11;100.00
16120;BME280;12670;53.502;10.252;2023-03-21T04:12:57;101103.78;;;9.12;100.00
16120;BME280;12670;53.502;10.252;2023-03-21T04:16:00;101105.13;;;9.25;100.00
16120;BME280;12670;53.502;10.252;2023-03-21T04:19:03;101108.44;;;9.33;100.00
16120;BME280;12670;53.502;10.252;2023-03-21T04:22:06;101107.50;;;9.34;100.00
16120;BME280;12670;53.502;10.252;2023-03-21T04:25:09;101109.38;;;9.31;100.00
16120;BME280;12670;53.502;10.252;2023-03-21T04:28:14;101106.84;;;9.28;100.00
16120;BME280;12670;53.502;10.252;2023-03-21T04:31:17;101099.94;;;9.22;100.00
16120;BME280;12670;53.502;10.252;2023-03-21T04:34:26;101102.84;;;9.13;100.00
16120;BME280;12670;53.502;10.252;2023-03-21T04:37:29;101098.66;;;9.06;100.00
16120;BME280;12670;53.502;10.252;2023-03-21T04:40:34;101097.13;;;8.99;100.00
16120;BME280;12670;53.502;10.252;2023-03-21T04:43:38;101103.47;;;8.93;100.00
16120;BME280;12670;53.502;10.252;2023-03-21T04:46:41;101103.88;;;9.09;100.00
16120;BME280;12670;53.502;10.252;2023-03-21T04:49:44;101095.69;;;9.17;100.00
16120;BME280;12670;53.502;10.252;2023-03-21T04:52:48;101104.56;;;9.16;100.00
16120;BME280;12670;53.502;10.252;2023-03-21T04:55:50;101102.41;;;9.28;100.00
16120;BME280;12670;53.502;10.252;2023-03-21T04:58:57;101093.03;;;9.46;100.00
16120;BME280;12670;53.502;10.252;2023-03-21T05:02:00;101093.72;;;9.23;100.00
16120;BME280;12670;53.502;10.252;2023-03-21T05:05:04;101093.22;;;9.40;100.00
16120;BME280;12670;53.502;10.252;2023-03-21T05:08:07;101097.34;;;9.49;100.00
16120;BME280;12670;53.502;10.252;2023-03-21T05:11:09;101099.84;;;9.53;100.00
16120;BME280;12670;53.502;10.252;2023-03-21T05:14:16;101092.91;;;9.21;100.00
16120;BME280;12670;53.502;10.252;2023-03-21T05:17:19;101097.44;;;9.46;100.00
16120;BME280;12670;53.502;10.252;2023-03-21T05:20:23;101097.53;;;9.43;100.00
16120;BME280;12670;53.502;10.252;2023-03-21T05:23:26;101098.03;;;9.27;100.00
16120;BME280;12670;53.502;10.252;2023-03-21T05:26:31;101104.66;;;9.41;100.00
16120;BME280;12670;53.502;10.252;2023-03-21T05:29:35;101098.19;;;9.49;100.00
16120;BME280;12670;53.502;10.252;2023-03-21T05:32:38;101094.59;;;9.52;100.00
16120;BME280;12670;53.502;10.252;2023-03-21T05:35:41;101094.59;;;9.52;100.00
16120;BME280;12670;53.502;10.252;2023-03-21T05:38:43;101089.72;;;9.66;100.00
16120;BME280;12670;53.502;10.252;2023-03-21T05:41:46;101086.25;;;9.64;100.00
16120;BME280;12670;53.502;10.252;2023-03-21T05:44:50;101086.66;;;9.52;100.00
16120;BME280;12670;53.502;10.252;2023-03-21T05:47:53;101082.03;;;9.58;100.00
16120;BME280;12670;53.502;10.252;2023-03-21T05:50:56;101084.44;;;9.66;100.00
16120;BME280;12670;53.502;10.252;2023-03-21T05:53:59;101081.97;;;9.60;100.00
16120;BME280;12670;53.502;10.252;2023-03-21T05:57:02;101088.09;;;9.62;100.00
16120;BME280;12670;53.502;10.252;2023-03-21T06:00:08;101085.53;;;9.59;100.00
16120;BME280;12670;53.502;10.252;2023-03-21T06:03:12;101082.69;;;9.39;100.00
16120;BME280;12670;53.502;10.252;2023-03-21T06:06:14;101084.81;;;9.54;100.00
16120;BME280;12670;53.502;10.252;2023-03-21T06:09:17;101085.41;;;9.64;100.00
16120;BME280;12670;53.502;10.252;2023-03-21T06:12:20;101086.31;;;9.63;100.00
16120;BME280;12670;53.502;10.252;2023-03-21T06:15:24;101091.03;;;9.53;100.00
16120;BME280;12670;53.502;10.252;2023-03-21T06:18:27;101080.97;;;9.64;100.00
16120;BME280;12670;53.502;10.252;2023-03-21T06:21:30;101081.03;;;9.63;100.00
16120;BME280;12670;53.502;10.252;2023-03-21T06:24:32;101083.63;;;9.64;100.00
16120;BME280;12670;53.502;10.252;2023-03-21T06:27:35;101078.25;;;9.66;100.00
16120;BME280;12670;53.502;10.252;2023-03-21T06:30:39;101073.22;;;9.84;100.00
16120;BME280;12670;53.502;10.252;2023-03-21T06:33:42;101074.84;;;9.88;100.00
16120;BME280;12670;53.502;10.252;2023-03-21T06:36:44;101071.78;;;10.01;100.00
16120;BME280;12670;53.502;10.252;2023-03-21T06:39:47;101063.97;;;9.98;100.00
16120;BME280;12670;53.502;10.252;2023-03-21T06:42:50;101069.25;;;9.98;100.00
16120;BME280;12670;53.502;10.252;2023-03-21T06:45:54;101069.13;;;10.01;100.00
16120;BME280;12670;53.502;10.252;2023-03-21T06:48:56;101070.97;;;9.99;100.00
16120;BME280;12670;53.502;10.252;2023-03-21T06:51:59;101077.41;;;9.92;100.00
16120;BME280;12670;53.502;10.252;2023-03-21T06:55:01;101074.84;;;9.88;100.00
16120;BME280;12670;53.502;10.252;2023-03-21T06:58:04;101074.34;;;9.51;100.00
16120;BME280;12670;53.502;10.252;2023-03-21T07:01:08;101073.81;;;9.66;100.00
16120;BME280;12670;53.502;10.252;2023-03-21T07:04:11;101075.56;;;9.67;100.00
16120;BME280;12670;53.502;10.252;2023-03-21T07:07:13;101080.31;;;9.84;100.00
16120;BME280;12670;53.502;10.252;2023-03-21T07:10:16;101078.63;;;9.81;100.00
16120;BME280;12670;53.502;10.252;2023-03-21T07:13:19;101080.56;;;9.76;100.00
16120;BME280;12670;53.502;10.252;2023-03-21T07:16:23;101079.16;;;9.93;100.00
16120;BME280;12670;53.502;10.252;2023-03-21T07:19:26;101072.22;;;9.88;100.00
16120;BME280;12670;53.502;10.252;2023-03-21T07:22:29;101068.22;;;10.02;100.00
16120;BME280;12670;53.502;10.252;2023-03-21T07:25:31;101073.00;;;10.17;100.00
16120;BME280;12670;53.502;10.252;2023-03-21T07:28:34;101071.41;;;10.11;100.00
16120;BME280;12670;53.502;10.252;2023-03-21T07:31:38;101069.25;;;10.23;100.00
16120;BME280;12670;53.502;10.252;2023-03-21T07:34:41;101071.34;;;10.14;100.00
16120;BME280;12670;53.502;10.252;2023-03-21T07:37:44;101069.41;;;10.18;100.00
16120;BME280;12670;53.502;10.252;2023-03-21T07:40:47;101070.78;;;9.78;100.00
16120;BME280;12670;53.502;10.252;2023-03-21T07:43:50;101078.19;;;9.67;100.00
16120;BME280;12670;53.502;10.252;2023-03-21T07:46:54;101075.69;;;9.36;100.00
16120;BME280;12670;53.502;10.252;2023-03-21T07:49:56;101083.88;;;9.28;100.00
16120;BME280;12670;53.502;10.252;2023-03-21T07:52:59;101091.97;;;9.52;100.00
16120;BME280;12670;53.502;10.252;2023-03-21T07:56:02;101082.09;;;9.83;100.00
16120;BME280;12670;53.502;10.252;2023-03-21T07:59:05;101083.00;;;9.82;100.00
16120;BME280;12670;53.502;10.252;2023-03-21T08:02:12;101080.66;;;10.00;100.00
16120;BME280;12670;53.502;10.252;2023-03-21T08:05:15;101075.31;;;10.01;100.00
16120;BME280;12670;53.502;10.252;2023-03-21T08:08:19;101077.59;;;10.12;100.00
16120;BME280;12670;53.502;10.252;2023-03-21T08:11:22;101078.38;;;9.89;100.00
16120;BME280;12670;53.502;10.252;2023-03-21T08:14:25;101080.34;;;9.82;100.00
16120;BME280;12670;53.502;10.252;2023-03-21T08:17:29;101083.00;;;10.09;100.00
16120;BME280;12670;53.502;10.252;2023-03-21T08:20:31;101075.38;;;10.26;100.00
16120;BME280;12670;53.502;10.252;2023-03-21T08:23:34;101079.28;;;9.88;100.00
16120;BME280;12670;53.502;10.252;2023-03-21T08:26:37;101069.63;;;10.12;100.00
16120;BME280;12670;53.502;10.252;2023-03-21T08:29:39;101066.97;;;10.12;100.00
16120;BME280;12670;53.502;10.252;2023-03-21T08:32:44;101070.25;;;10.20;100.00
16120;BME280;12670;53.502;10.252;2023-03-21T08:35:46;101064.56;;;10.32;100.00
16120;BME280;12670;53.502;10.252;2023-03-21T08:38:49;101065.97;;;9.89;100.00
16120;BME280;12670;53.502;10.252;2023-03-21T08:41:57;101073.78;;;10.19;100.00
16120;BME280;12670;53.502;10.252;2023-03-21T08:44:59;101063.00;;;10.25;100.00
16120;BME280;12670;53.502;10.252;2023-03-21T08:48:03;101064.56;;;10.32;100.00
16120;BME280;12670;53.502;10.252;2023-03-21T08:51:07;101061.69;;;10.38;100.00
16120;BME280;12670;53.502;10.252;2023-03-21T08:54:17;101069.88;;;10.31;100.00
16120;BME280;12670;53.502;10.252;2023-03-21T08:57:20;101058.88;;;9.92;100.00
16120;BME280;12670;53.502;10.252;2023-03-21T09:00:23;101060.59;;;9.93;100.00
16120;BME280;12670;53.502;10.252;2023-03-21T09:03:27;101068.50;;;10.19;100.00
16120;BME280;12670;53.502;10.252;2023-03-21T09:06:30;101068.50;;;10.19;100.00
16120;BME280;12670;53.502;10.252;2023-03-21T09:09:34;101069.63;;;10.38;100.00
16120;BME280;12670;53.502;10.252;2023-03-21T09:12:36;101059.84;;;10.14;100.00
16120;BME280;12670;53.502;10.252;2023-03-21T09:15:39;101064.44;;;10.35;100.00
16120;BME280;12670;53.502;10.252;2023-03-21T09:18:43;101064.44;;;10.35;100.00
16120;BME280;12670;53.502;10.252;2023-03-21T09:21:47;101065.84;;;10.46;100.00
16120;BME280;12670;53.502;10.252;2023-03-21T09:24:50;101060.53;;;10.46;100.00
16120;BME280;12670;53.502;10.252;2023-03-21T09:27:53;101063.00;;;10.25;100.00
16120;BME280;12670;53.502;10.252;2023-03-21T09:30:57;101069.47;;;10.17;100.00
16120;BME280;12670;53.502;10.252;2023-03-21T09:34:02;101066.38;;;10.30;100.00
16120;BME280;12670;53.502;10.252;2023-03-21T09:37:04;101067.75;;;10.15;100.00
16120;BME280;12670;53.502;10.252;2023-03-21T09:40:15;101060.16;;;10.05;100.00
16120;BME280;12670;53.502;10.252;2023-03-21T09:43:34;101062.59;;;10.11;100.00
16120;BME280;12670;53.502;10.252;2023-03-21T09:46:44;101065.28;;;10.36;100.00
16120;BME280;12670;53.502;10.252;2023-03-21T09:49:51;101057.16;;;10.40;100.00
16120;BME280;12670;53.502;10.252;2023-03-21T09:53:17;101059.72;;;10.44;100.00
16120;BME280;12670;53.502;10.252;2023-03-21T09:56:22;101055.69;;;10.57;100.00
16120;BME280;12670;53.502;10.252;2023-03-21T09:59:31;101054.84;;;10.56;100.00
16120;BME280;12670;53.502;10.252;2023-03-21T10:02:38;101054.53;;;10.64;100.00
16120;BME280;12670;53.502;10.252;2023-03-21T10:05:42;101043.91;;;10.40;100.00
16120;BME280;12670;53.502;10.252;2023-03-21T10:08:49;101053.09;;;10.30;100.00
16120;BME280;12670;53.502;10.252;2023-03-21T10:11:56;101052.34;;;10.52;100.00
16120;BME280;12670;53.502;10.252;2023-03-21T10:15:00;101044.63;;;10.69;100.00
16120;BME280;12670;53.502;10.252;2023-03-21T10:18:06;101040.25;;;10.68;100.00
16120;BME280;12670;53.502;10.252;2023-03-21T10:21:16;101041.13;;;10.68;100.00
16120;BME280;12670;53.502;10.252;2023-03-21T10:24:41;101041.97;;;10.69;100.00
16120;BME280;12670;53.502;10.252;2023-03-21T10:27:44;101038.16;;;10.76;100.00
16120;BME280;12670;53.502;10.252;2023-03-21T10:30:49;101032.75;;;10.56;100.00
16120;BME280;12670;53.502;10.252;2023-03-21T10:33:55;101033.66;;;10.78;100.00
16120;BME280;12670;53.502;10.252;2023-03-21T10:37:01;101037.06;;;10.82;100.00
16120;BME280;12670;53.502;10.252;2023-03-21T10:40:06;101030.66;;;10.87;100.00
16120;BME280;12670;53.502;10.252;2023-03-21T10:43:19;101039.06;;;10.99;100.00
16120;BME280;12670;53.502;10.252;2023-03-21T10:46:31;101032.34;;;11.12;100.00
16120;BME280;12670;53.502;10.252;2023-03-21T10:49:37;101025.59;;;10.81;100.00
16120;BME280;12670;53.502;10.252;2023-03-21T10:53:02;101032.75;;;10.79;100.00
16120;BME280;12670;53.502;10.252;2023-03-21T10:56:07;101033.19;;;10.67;100.00
16120;BME280;12670;53.502;10.252;2023-03-21T10:59:16;101025.22;;;10.67;100.00
16120;BME280;12670;53.502;10.252;2023-03-21T11:02:24;101025.53;;;10.59;100.00
16120;BME280;12670;53.502;10.252;2023-03-21T11:05:34;101032.28;;;10.68;100.00
16120;BME280;12670;53.502;10.252;2023-03-21T11:08:42;101015.91;;;10.57;100.00
16120;BME280;12670;53.502;10.252;2023-03-21T11:11:51;101015.91;;;10.57;100.00
16120;BME280;12670;53.502;10.252;2023-03-21T11:14:54;101015.84;;;10.58;100.00
16120;BME280;12670;53.502;10.252;2023-03-21T11:17:58;101015.75;;;10.61;100.00
16120;BME280;12670;53.502;10.252;2023-03-21T11:21:02;101012.50;;;10.53;100.00
16120;BME280;12670;53.502;10.252;2023-03-21T11:24:11;101010.69;;;10.54;100.00
16120;BME280;12670;53.502;10.252;2023-03-21T11:27:15;101012.41;;;10.55;100.00
16120;BME280;12670;53.502;10.252;2023-03-21T11:30:20;101015.84;;;10.58;100.00
16120;BME280;12670;53.502;10.252;2023-03-21T11:33:25;101010.41;;;10.38;100.00
16120;BME280;12670;53.502;10.252;2023-03-21T11:36:33;101014.28;;;10.53;100.00
16120;BME280;12670;53.502;10.252;2023-03-21T11:39:41;101010.59;;;10.57;100.00
16120;BME280;12670;53.502;10.252;2023-03-21T11:42:47;101008.63;;;10.62;100.00
16120;BME280;12670;53.502;10.252;2023-03-21T11:45:56;100998.72;;;10.44;100.00
16120;BME280;12670;53.502;10.252;2023-03-21T11:48:59;100998.25;;;10.56;100.00
16120;BME280;12670;53.502;10.252;2023-03-21T11:52:09;101004.47;;;10.78;100.00
16120;BME280;12670;53.502;10.252;2023-03-21T11:55:30;100989.75;;;10.93;100.00
16120;BME280;12670;53.502;10.252;2023-03-21T11:58:42;100987.97;;;10.70;100.00
16120;BME280;12670;53.502;10.252;2023-03-21T12:05:25;100980.66;;;10.99;100.00
16120;BME280;12670;53.502;10.252;2023-03-21T12:08:35;100969.06;;;10.79;100.00
16120;BME280;12670;53.502;10.252;2023-03-21T12:11:58;100970.19;;;10.72;100.00
16120;BME280;12670;53.502;10.252;2023-03-21T12:15:07;100974.59;;;10.73;100.00
16120;BME280;12670;53.502;10.252;2023-03-21T12:18:25;100966.66;;;10.73;100.00
16120;BME280;12670;53.502;10.252;2023-03-21T12:21:33;100964.09;;;10.70;100.00
16120;BME280;12670;53.502;10.252;2023-03-21T12:24:48;100956.44;;;10.84;100.00
16120;BME280;12670;53.502;10.252;2023-03-21T12:28:03;100950.59;;;10.98;100.00
16120;BME280;12670;53.502;10.252;2023-03-21T12:31:15;100952.56;;;10.93;100.00
16120;BME280;12670;53.502;10.252;2023-03-21T12:34:35;100950.22;;;11.07;100.00
16120;BME280;12670;53.502;10.252;2023-03-21T12:37:50;100946.22;;;10.97;100.00
16120;BME280;12670;53.502;10.252;2023-03-21T12:44:38;100939.03;;;10.77;100.00
16120;BME280;12670;53.502;10.252;2023-03-21T12:47:48;100931.56;;;10.65;100.00
16120;BME280;12670;53.502;10.252;2023-03-21T12:50:53;100934.97;;;10.90;100.00
16120;BME280;12670;53.502;10.252;2023-03-21T12:54:08;100925.09;;;10.72;100.00
16120;BME280;12670;53.502;10.252;2023-03-21T12:57:16;100921.69;;;10.90;100.00
16120;BME280;12670;53.502;10.252;2023-03-21T13:00:25;100919.44;;;10.81;100.00
16120;BME280;12670;53.502;10.252;2023-03-21T13:03:32;100923.72;;;10.84;100.00
16120;BME280;12670;53.502;10.252;2023-03-21T13:06:42;100917.56;;;10.61;100.00
16120;BME280;12670;53.502;10.252;2023-03-21T13:09:47;100917.16;;;10.49;100.00
16120;BME280;12670;53.502;10.252;2023-03-21T13:12:57;100915.88;;;10.59;100.00
16120;BME280;12670;53.502;10.252;2023-03-21T13:16:08;100904.75;;;10.49;100.00
16120;BME280;12670;53.502;10.252;2023-03-21T13:19:19;100911.03;;;10.70;100.00
16120;BME280;12670;53.502;10.252;2023-03-21T13:22:25;100905.66;;;10.72;100.00
16120;BME280;12670;53.502;10.252;2023-03-21T13:25:30;100898.97;;;10.83;100.00
16120;BME280;12670;53.502;10.252;2023-03-21T13:28:35;100895.31;;;11.08;100.00
16120;BME280;12670;53.502;10.252;2023-03-21T13:31:47;100898.81;;;10.88;100.00
16120;BME280;12670;53.502;10.252;2023-03-21T13:34:54;100885.72;;;10.83;100.00
16120;BME280;12670;53.502;10.252;2023-03-21T13:38:00;100894.59;;;10.82;100.00
16120;BME280;12670;53.502;10.252;2023-03-21T13:41:06;100894.53;;;10.84;100.00
16120;BME280;12670;53.502;10.252;2023-03-21T13:44:18;100885.44;;;10.91;100.00
16120;BME280;12670;53.502;10.252;2023-03-21T13:47:38;100884.53;;;10.90;100.00
16120;BME280;12670;53.502;10.252;2023-03-21T13:50:51;100882.28;;;10.81;100.00
16120;BME280;12670;53.502;10.252;2023-03-21T13:53:59;100877.66;;;11.07;100.00
16120;BME280;12670;53.502;10.252;2023-03-21T13:57:04;100878.75;;;11.03;100.00
16120;BME280;12670;53.502;10.252;2023-03-21T14:00:17;100874.06;;;10.87;100.00
16120;BME280;12670;53.502;10.252;2023-03-21T14:03:21;100877.06;;;10.78;100.00
16120;BME280;12670;53.502;10.252;2023-03-21T14:06:31;100883.13;;;10.82;100.00
16120;BME280;12670;53.502;10.252;2023-03-21T14:09:38;100872.16;;;10.69;100.00
16120;BME280;12670;53.502;10.252;2023-03-21T14:12:42;100878.94;;;10.76;100.00
16120;BME280;12670;53.502;10.252;2023-03-21T14:15:48;100864.72;;;10.77;100.00
16120;BME280;12670;53.502;10.252;2023-03-21T14:19:01;100866.09;;;10.87;100.00
16120;BME280;12670;53.502;10.252;2023-03-21T14:22:23;100865.38;;;10.62;100.00
16120;BME280;12670;53.502;10.252;2023-03-21T14:25:32;100864.53;;;10.60;100.00
16120;BME280;12670;53.502;10.252;2023-03-21T14:28:47;100868.31;;;10.76;100.00
16120;BME280;12670;53.502;10.252;2023-03-21T14:31:52;100867.09;;;10.85;100.00
16120;BME280;12670;53.502;10.252;2023-03-21T14:35:00;100863.63;;;10.61;100.00
16120;BME280;12670;53.502;10.252;2023-03-21T14:38:05;100860.78;;;10.65;100.00
16120;BME280;12670;53.502;10.252;2023-03-21T14:41:20;100858.97;;;10.67;100.00
16120;BME280;12670;53.502;10.252;2023-03-21T14:44:25;100853.25;;;10.77;100.00
16120;BME280;12670;53.502;10.252;2023-03-21T14:47:29;100856.88;;;10.96;100.00
16120;BME280;12670;53.502;10.252;2023-03-21T14:50:41;100845.34;;;10.97;100.00
16120;BME280;12670;53.502;10.252;2023-03-21T14:53:45;100846.66;;;10.65;100.00
16120;BME280;12670;53.502;10.252;2023-03-21T14:56:50;100845.47;;;10.72;100.00
16120;BME280;12670;53.502;10.252;2023-03-21T14:59:56;100837.00;;;10.84;100.00
16120;BME280;12670;53.502;10.252;2023-03-21T15:03:00;100829.44;;;10.75;100.00
16120;BME280;12670;53.502;10.252;2023-03-21T15:06:10;100831.16;;;10.76;100.00
16120;BME280;12670;53.502;10.252;2023-03-21T15:09:15;100833.38;;;10.65;100.00
16120;BME280;12670;53.502;10.252;2023-03-21T15:12:18;100827.66;;;10.76;100.00
16120;BME280;12670;53.502;10.252;2023-03-21T15:15:21;100816.72;;;10.83;100.00
16120;BME280;12670;53.502;10.252;2023-03-21T15:18:30;100811.53;;;10.80;100.00
16120;BME280;12670;53.502;10.252;2023-03-21T15:21:36;100807.50;;;10.92;100.00
16120;BME280;12670;53.502;10.252;2023-03-21T15:24:44;100794.16;;;11.14;100.00
16120;BME280;12670;53.502;10.252;2023-03-21T15:27:49;100794.06;;;11.17;100.00
16120;BME280;12670;53.502;10.252;2023-03-21T15:30:52;100793.56;;;11.07;100.00
16120;BME280;12670;53.502;10.252;2023-03-21T15:33:55;100795.97;;;10.93;100.00
16120;BME280;12670;53.502;10.252;2023-03-21T15:37:02;100791.31;;;10.98;100.00
16120;BME280;12670;53.502;10.252;2023-03-21T15:40:08;100789.66;;;10.95;100.00
16120;BME280;12670;53.502;10.252;2023-03-21T15:43:13;100790.72;;;10.91;100.00
16120;BME280;12670;53.502;10.252;2023-03-21T15:46:30;100793.41;;;10.70;100.00
16120;BME280;12670;53.502;10.252;2023-03-21T15:49:39;100786.84;;;10.78;100.00
16120;BME280;12670;53.502;10.252;2023-03-21T15:52:43;100797.47;;;10.78;100.00
16120;BME280;12670;53.502;10.252;2023-03-21T15:55:48;100792.28;;;10.75;100.00
16120;BME280;12670;53.502;10.252;2023-03-21T15:58:52;100790.56;;;10.74;100.00
16120;BME280;12670;53.502;10.252;2023-03-21T16:01:54;100794.00;;;10.56;100.00
16120;BME280;12670;53.502;10.252;2023-03-21T16:04:59;100789.97;;;10.46;100.00